sensor_id;sensor_type;location;lat;lon;timestamp;P1;durP1;ratioP1;P2;durP2;ratioP2
34892;SDS011;21106;52.240;20.902;2023-12-04T00:01:28;26.00;;;13.60;;
34892;SDS011;21106;52.240;20.902;2023-12-04T00:06:34;27.90;;;14.10;;
34892;SDS011;21106;52.240;20.902;2023-12-04T00:11:41;28.50;;;14.70;;
34892;SDS011;21106;52.240;20.902;2023-12-04T00:16:47;27.70;;;13.40;;
34892;SDS011;21106;52.240;20.902;2023-12-04T00:21:54;24.90;;;13.60;;
34892;SDS011;21106;52.240;20.902;2023-12-04T00:27:00;25.70;;;13.10;;
34892;SDS011;21106;52.240;20.902;2023-12-04T00:32:07;28.30;;;14.50;;
34892;SDS011;21106;52.240;20.902;2023-12-04T00:37:13;27.60;;;14.30;;
34892;SDS011;21106;52.240;20.902;2023-12-04T00:42:20;27.60;;;14.70;;
34892;SDS011;21106;52.240;20.902;2023-12-04T00:47:26;27.70;;;15.00;;
34892;SDS011;21106;52.240;20.902;2023-12-04T00:52:33;27.40;;;15.40;;
34892;SDS011;21106;52.240;20.902;2023-12-04T00:57:39;27.90;;;14.60;;
34892;SDS011;21106;52.240;20.902;2023-12-04T01:02:45;30.30;;;16.80;;
34892;SDS011;21106;52.240;20.902;2023-12-04T01:07:52;25.70;;;14.80;;
34892;SDS011;21106;52.240;20.902;2023-12-04T01:12:58;29.50;;;15.10;;
34892;SDS011;21106;52.240;20.902;2023-12-04T01:18:05;26.80;;;15.00;;
34892;SDS011;21106;52.240;20.902;2023-12-04T01:23:11;23.70;;;13.30;;
34892;SDS011;21106;52.240;20.902;2023-12-04T01:28:18;23.20;;;13.50;;
34892;SDS011;21106;52.240;20.902;2023-12-04T01:33:24;25.80;;;13.10;;
34892;SDS011;21106;52.240;20.902;2023-12-04T01:38:31;24.60;;;12.80;;
34892;SDS011;21106;52.240;20.902;2023-12-04T01:43:37;18.50;;;10.60;;
34892;SDS011;21106;52.240;20.902;2023-12-04T01:48:44;20.80;;;10.90;;
34892;SDS011;21106;52.240;20.902;2023-12-04T01:53:52;17.70;;;9.90;;
34892;SDS011;21106;52.240;20.902;2023-12-04T01:58:59;19.80;;;9.70;;
34892;SDS011;21106;52.240;20.902;2023-12-04T02:04:06;17.20;;;9.40;;
34892;SDS011;21106;52.240;20.902;2023-12-04T02:09:12;20.80;;;9.50;;
34892;SDS011;21106;52.240;20.902;2023-12-04T02:14:21;14.10;;;8.20;;
34892;SDS011;21106;52.240;20.902;2023-12-04T02:19:28;18.30;;;10.50;;
34892;SDS011;21106;52.240;20.902;2023-12-04T02:24:35;20.50;;;10.80;;
34892;SDS011;21106;52.240;20.902;2023-12-04T02:29:45;17.30;;;9.60;;
34892;SDS011;21106;52.240;20.902;2023-12-04T02:34:57;15.30;;;8.70;;
34892;SDS011;21106;52.240;20.902;2023-12-04T02:40:10;13.90;;;8.30;;
34892;SDS011;21106;52.240;20.902;2023-12-04T02:45:19;16.20;;;7.70;;
34892;SDS011;21106;52.240;20.902;2023-12-04T02:50:25;14.10;;;7.40;;
34892;SDS011;21106;52.240;20.902;2023-12-04T02:55:31;14.40;;;8.40;;
34892;SDS011;21106;52.240;20.902;2023-12-04T03:00:38;14.30;;;8.20;;
34892;SDS011;21106;52.240;20.902;2023-12-04T03:05:44;17.00;;;8.50;;
34892;SDS011;21106;52.240;20.902;2023-12-04T03:10:51;15.60;;;8.40;;
34892;SDS011;21106;52.240;20.902;2023-12-04T03:15:57;15.60;;;8.70;;
34892;SDS011;21106;52.240;20.902;2023-12-04T03:21:04;15.80;;;8.90;;
34892;SDS011;21106;52.240;20.902;2023-12-04T03:26:10;17.90;;;9.60;;
34892;SDS011;21106;52.240;20.902;2023-12-04T03:31:16;18.40;;;9.90;;
34892;SDS011;21106;52.240;20.902;2023-12-04T03:36:23;16.60;;;8.60;;
34892;SDS011;21106;52.240;20.902;2023-12-04T03:41:29;21.70;;;10.70;;
34892;SDS011;21106;52.240;20.902;2023-12-04T03:46:36;18.30;;;10.60;;
34892;SDS011;21106;52.240;20.902;2023-12-04T03:51:42;18.50;;;10.20;;
34892;SDS011;21106;52.240;20.902;2023-12-04T03:56:49;19.90;;;11.90;;
34892;SDS011;21106;52.240;20.902;2023-12-04T04:01:55;16.90;;;10.00;;
34892;SDS011;21106;52.240;20.902;2023-12-04T04:07:02;17.50;;;10.10;;
34892;SDS011;21106;52.240;20.902;2023-12-04T04:12:08;20.20;;;11.10;;
34892;SDS011;21106;52.240;20.902;2023-12-04T04:17:14;16.70;;;10.70;;
34892;SDS011;21106;52.240;20.902;2023-12-04T04:22:21;18.00;;;10.50;;
34892;SDS011;21106;52.240;20.902;2023-12-04T04:27:28;20.20;;;11.00;;
34892;SDS011;21106;52.240;20.902;2023-12-04T04:32:35;22.50;;;11.40;;
34892;SDS011;21106;52.240;20.902;2023-12-04T04:37:41;20.80;;;11.00;;
34892;SDS011;21106;52.240;20.902;2023-12-04T04:42:48;19.70;;;11.00;;
34892;SDS011;21106;52.240;20.902;2023-12-04T04:47:54;20.70;;;11.80;;
34892;SDS011;21106;52.240;20.902;2023-12-04T04:53:01;29.30;;;12.80;;
34892;SDS011;21106;52.240;20.902;2023-12-04T04:58:07;20.60;;;11.70;;
34892;SDS011;21106;52.240;20.902;2023-12-04T05:03:14;21.30;;;11.70;;
34892;SDS011;21106;52.240;20.902;2023-12-04T05:08:20;27.80;;;11.70;;
34892;SDS011;21106;52.240;20.902;2023-12-04T05:13:26;22.80;;;12.10;;
34892;SDS011;21106;52.240;20.902;2023-12-04T05:18:33;19.20;;;11.00;;
34892;SDS011;21106;52.240;20.902;2023-12-04T05:23:39;24.20;;;13.70;;
34892;SDS011;21106;52.240;20.902;2023-12-04T05:28:46;21.90;;;12.60;;
34892;SDS011;21106;52.240;20.902;2023-12-04T05:33:52;23.00;;;12.60;;
34892;SDS011;21106;52.240;20.902;2023-12-04T05:38:59;21.00;;;11.70;;
34892;SDS011;21106;52.240;20.902;2023-12-04T05:44:05;26.20;;;13.30;;
34892;SDS011;21106;52.240;20.902;2023-12-04T05:49:12;23.10;;;12.10;;
34892;SDS011;21106;52.240;20.902;2023-12-04T05:54:18;24.30;;;13.50;;
34892;SDS011;21106;52.240;20.902;2023-12-04T05:59:25;25.00;;;13.80;;
34892;SDS011;21106;52.240;20.902;2023-12-04T06:04:31;24.80;;;13.10;;
34892;SDS011;21106;52.240;20.902;2023-12-04T06:09:37;26.00;;;13.30;;
34892;SDS011;21106;52.240;20.902;2023-12-04T06:14:45;24.80;;;12.90;;
34892;SDS011;21106;52.240;20.902;2023-12-04T06:19:51;27.80;;;13.30;;
34892;SDS011;21106;52.240;20.902;2023-12-04T06:24:58;24.20;;;13.20;;
34892;SDS011;21106;52.240;20.902;2023-12-04T06:30:05;28.30;;;14.00;;
34892;SDS011;21106;52.240;20.902;2023-12-04T06:35:12;25.20;;;13.80;;
34892;SDS011;21106;52.240;20.902;2023-12-04T06:40:19;29.00;;;13.90;;
34892;SDS011;21106;52.240;20.902;2023-12-04T06:45:25;24.10;;;13.10;;
34892;SDS011;21106;52.240;20.902;2023-12-04T06:50:33;25.00;;;13.90;;
34892;SDS011;21106;52.240;20.902;2023-12-04T06:55:39;25.40;;;14.10;;
34892;SDS011;21106;52.240;20.902;2023-12-04T07:00:46;29.00;;;15.10;;
34892;SDS011;21106;52.240;20.902;2023-12-04T07:05:52;37.00;;;15.00;;
34892;SDS011;21106;52.240;20.902;2023-12-04T07:10:58;29.60;;;15.10;;
34892;SDS011;21106;52.240;20.902;2023-12-04T07:16:05;33.10;;;15.80;;
34892;SDS011;21106;52.240;20.902;2023-12-04T07:21:11;33.70;;;16.70;;
34892;SDS011;21106;52.240;20.902;2023-12-04T07:26:18;29.90;;;16.30;;
34892;SDS011;21106;52.240;20.902;2023-12-04T07:31:24;33.20;;;17.10;;
34892;SDS011;21106;52.240;20.902;2023-12-04T07:36:32;33.10;;;15.80;;
34892;SDS011;21106;52.240;20.902;2023-12-04T07:41:38;41.90;;;19.10;;
34892;SDS011;21106;52.240;20.902;2023-12-04T07:46:45;37.40;;;18.00;;
34892;SDS011;21106;52.240;20.902;2023-12-04T07:51:52;36.90;;;17.40;;
34892;SDS011;21106;52.240;20.902;2023-12-04T07:56:58;35.80;;;18.10;;
34892;SDS011;21106;52.240;20.902;2023-12-04T08:02:05;36.30;;;16.10;;
34892;SDS011;21106;52.240;20.902;2023-12-04T08:07:11;32.00;;;16.70;;
34892;SDS011;21106;52.240;20.902;2023-12-04T08:12:18;35.60;;;17.70;;
34892;SDS011;21106;52.240;20.902;2023-12-04T08:17:24;38.40;;;18.30;;
34892;SDS011;21106;52.240;20.902;2023-12-04T08:22:30;36.90;;;16.70;;
34892;SDS011;21106;52.240;20.902;2023-12-04T08:27:37;40.40;;;18.50;;
34892;SDS011;21106;52.240;20.902;2023-12-04T08:32:44;32.70;;;16.20;;
34892;SDS011;21106;52.240;20.902;2023-12-04T08:37:50;32.30;;;16.30;;
34892;SDS011;21106;52.240;20.902;2023-12-04T08:42:57;30.90;;;16.40;;
34892;SDS011;21106;52.240;20.902;2023-12-04T08:48:03;34.40;;;16.90;;
34892;SDS011;21106;52.240;20.902;2023-12-04T08:53:29;32.30;;;15.20;;
34892;SDS011;21106;52.240;20.902;2023-12-04T08:58:37;35.30;;;15.50;;
34892;SDS011;21106;52.240;20.902;2023-12-04T09:03:45;33.50;;;15.30;;
34892;SDS011;21106;52.240;20.902;2023-12-04T09:08:56;33.30;;;16.10;;
34892;SDS011;21106;52.240;20.902;2023-12-04T09:14:04;34.70;;;15.40;;
34892;SDS011;21106;52.240;20.902;2023-12-04T09:19:14;28.30;;;14.50;;
34892;SDS011;21106;52.240;20.902;2023-12-04T09:24:23;34.10;;;15.90;;
34892;SDS011;21106;52.240;20.902;2023-12-04T09:29:33;33.80;;;16.10;;
34892;SDS011;21106;52.240;20.902;2023-12-04T09:34:41;31.20;;;16.20;;
34892;SDS011;21106;52.240;20.902;2023-12-04T09:39:57;31.80;;;15.90;;
34892;SDS011;21106;52.240;20.902;2023-12-04T09:45:05;34.40;;;16.10;;
34892;SDS011;21106;52.240;20.902;2023-12-04T09:50:14;32.00;;;15.00;;
34892;SDS011;21106;52.240;20.902;2023-12-04T09:55:23;32.80;;;15.90;;
34892;SDS011;21106;52.240;20.902;2023-12-04T10:00:31;31.50;;;16.00;;
34892;SDS011;21106;52.240;20.902;2023-12-04T10:05:43;29.70;;;15.40;;
34892;SDS011;21106;52.240;20.902;2023-12-04T10:10:51;35.50;;;16.70;;
34892;SDS011;21106;52.240;20.902;2023-12-04T10:15:57;30.60;;;14.80;;
34892;SDS011;21106;52.240;20.902;2023-12-04T10:21:04;32.10;;;15.60;;
34892;SDS011;21106;52.240;20.902;2023-12-04T10:26:16;34.60;;;16.40;;
34892;SDS011;21106;52.240;20.902;2023-12-04T10:31:23;33.00;;;14.90;;
34892;SDS011;21106;52.240;20.902;2023-12-04T10:36:29;33.10;;;15.80;;
34892;SDS011;21106;52.240;20.902;2023-12-04T10:41:36;35.20;;;16.80;;
34892;SDS011;21106;52.240;20.902;2023-12-04T10:46:42;33.10;;;16.50;;
34892;SDS011;21106;52.240;20.902;2023-12-04T10:51:51;31.10;;;15.70;;
34892;SDS011;21106;52.240;20.902;2023-12-04T10:57:01;31.00;;;15.40;;
34892;SDS011;21106;52.240;20.902;2023-12-04T11:02:09;35.40;;;16.10;;
34892;SDS011;21106;52.240;20.902;2023-12-04T11:07:25;33.70;;;15.60;;
34892;SDS011;21106;52.240;20.902;2023-12-04T11:12:33;33.00;;;15.40;;
34892;SDS011;21106;52.240;20.902;2023-12-04T11:17:40;32.50;;;15.90;;
34892;SDS011;21106;52.240;20.902;2023-12-04T11:27:57;33.10;;;14.90;;
34892;SDS011;21106;52.240;20.902;2023-12-04T11:33:04;33.30;;;14.80;;
34892;SDS011;21106;52.240;20.902;2023-12-04T11:38:14;30.90;;;14.10;;
34892;SDS011;21106;52.240;20.902;2023-12-04T11:43:25;30.40;;;13.70;;
34892;SDS011;21106;52.240;20.902;2023-12-04T11:48:33;27.40;;;14.30;;
34892;SDS011;21106;52.240;20.902;2023-12-04T11:53:40;32.20;;;14.60;;
34892;SDS011;21106;52.240;20.902;2023-12-04T11:58:47;30.50;;;14.80;;
34892;SDS011;21106;52.240;20.902;2023-12-04T12:03:53;30.30;;;14.10;;
34892;SDS011;21106;52.240;20.902;2023-12-04T12:09:00;30.70;;;14.30;;
34892;SDS011;21106;52.240;20.902;2023-12-04T12:14:06;31.60;;;13.10;;
34892;SDS011;21106;52.240;20.902;2023-12-04T12:19:12;29.30;;;13.50;;
34892;SDS011;21106;52.240;20.902;2023-12-04T12:24:20;27.10;;;12.90;;
34892;SDS011;21106;52.240;20.902;2023-12-04T12:29:27;29.20;;;14.00;;
34892;SDS011;21106;52.240;20.902;2023-12-04T12:34:34;29.40;;;14.00;;
34892;SDS011;21106;52.240;20.902;2023-12-04T12:39:41;29.90;;;14.80;;
34892;SDS011;21106;52.240;20.902;2023-12-04T12:44:49;32.10;;;14.40;;
34892;SDS011;21106;52.240;20.902;2023-12-04T12:49:55;31.00;;;13.70;;
34892;SDS011;21106;52.240;20.902;2023-12-04T12:55:02;46.50;;;15.70;;
34892;SDS011;21106;52.240;20.902;2023-12-04T13:00:10;35.80;;;14.60;;
34892;SDS011;21106;52.240;20.902;2023-12-04T13:05:17;35.80;;;17.30;;
34892;SDS011;21106;52.240;20.902;2023-12-04T13:10:25;35.40;;;16.20;;
34892;SDS011;21106;52.240;20.902;2023-12-04T13:15:32;37.70;;;17.00;;
34892;SDS011;21106;52.240;20.902;2023-12-04T13:20:38;39.50;;;18.90;;
34892;SDS011;21106;52.240;20.902;2023-12-04T13:25:44;35.80;;;17.20;;
34892;SDS011;21106;52.240;20.902;2023-12-04T13:30:51;39.20;;;18.00;;
34892;SDS011;21106;52.240;20.902;2023-12-04T13:35:58;33.60;;;16.50;;
34892;SDS011;21106;52.240;20.902;2023-12-04T13:41:05;42.30;;;19.10;;
34892;SDS011;21106;52.240;20.902;2023-12-04T13:46:30;37.40;;;18.50;;
34892;SDS011;21106;52.240;20.902;2023-12-04T13:51:37;44.40;;;20.10;;
34892;SDS011;21106;52.240;20.902;2023-12-04T13:56:46;35.00;;;16.40;;
34892;SDS011;21106;52.240;20.902;2023-12-04T14:01:59;37.90;;;18.40;;
34892;SDS011;21106;52.240;20.902;2023-12-04T14:07:06;44.50;;;19.70;;
34892;SDS011;21106;52.240;20.902;2023-12-04T14:12:14;39.70;;;19.00;;
34892;SDS011;21106;52.240;20.902;2023-12-04T14:17:21;46.40;;;20.70;;
34892;SDS011;21106;52.240;20.902;2023-12-04T14:22:28;44.00;;;20.30;;
34892;SDS011;21106;52.240;20.902;2023-12-04T14:27:34;43.80;;;20.80;;
34892;SDS011;21106;52.240;20.902;2023-12-04T14:32:41;40.00;;;20.50;;
34892;SDS011;21106;52.240;20.902;2023-12-04T14:37:52;39.50;;;19.40;;
34892;SDS011;21106;52.240;20.902;2023-12-04T14:43:20;41.80;;;20.00;;
34892;SDS011;21106;52.240;20.902;2023-12-04T14:48:35;45.40;;;21.60;;
34892;SDS011;21106;52.240;20.902;2023-12-04T14:53:48;41.60;;;21.00;;
34892;SDS011;21106;52.240;20.902;2023-12-04T14:59:14;43.80;;;20.50;;
34892;SDS011;21106;52.240;20.902;2023-12-04T15:04:44;50.60;;;21.70;;
34892;SDS011;21106;52.240;20.902;2023-12-04T15:10:17;42.20;;;20.20;;
34892;SDS011;21106;52.240;20.902;2023-12-04T15:15:48;43.20;;;20.70;;
34892;SDS011;21106;52.240;20.902;2023-12-04T15:21:26;41.30;;;19.20;;
34892;SDS011;21106;52.240;20.902;2023-12-04T15:26:34;44.70;;;19.60;;
34892;SDS011;21106;52.240;20.902;2023-12-04T15:31:41;38.90;;;19.30;;
34892;SDS011;21106;52.240;20.902;2023-12-04T15:36:53;33.40;;;17.50;;
34892;SDS011;21106;52.240;20.902;2023-12-04T15:42:00;37.90;;;19.10;;
34892;SDS011;21106;52.240;20.902;2023-12-04T15:47:06;38.70;;;19.30;;
34892;SDS011;21106;52.240;20.902;2023-12-04T15:52:15;38.00;;;18.70;;
34892;SDS011;21106;52.240;20.902;2023-12-04T16:02:34;36.40;;;18.70;;
34892;SDS011;21106;52.240;20.902;2023-12-04T16:07:42;39.20;;;18.70;;
34892;SDS011;21106;52.240;20.902;2023-12-04T16:12:49;35.00;;;17.00;;
34892;SDS011;21106;52.240;20.902;2023-12-04T16:17:55;38.30;;;18.10;;
34892;SDS011;21106;52.240;20.902;2023-12-04T16:23:02;37.70;;;17.30;;
34892;SDS011;21106;52.240;20.902;2023-12-04T16:28:08;33.50;;;16.50;;
34892;SDS011;21106;52.240;20.902;2023-12-04T16:33:16;38.50;;;17.90;;
34892;SDS011;21106;52.240;20.902;2023-12-04T16:38:22;36.60;;;17.30;;
34892;SDS011;21106;52.240;20.902;2023-12-04T16:43:31;34.90;;;17.10;;
34892;SDS011;21106;52.240;20.902;2023-12-04T16:48:38;35.10;;;16.90;;
34892;SDS011;21106;52.240;20.902;2023-12-04T16:53:44;37.30;;;17.90;;
34892;SDS011;21106;52.240;20.902;2023-12-04T16:58:51;38.20;;;18.10;;
34892;SDS011;21106;52.240;20.902;2023-12-04T17:03:58;39.30;;;18.20;;
34892;SDS011;21106;52.240;20.902;2023-12-04T17:09:04;42.00;;;18.20;;
34892;SDS011;21106;52.240;20.902;2023-12-04T17:14:12;41.40;;;19.70;;
34892;SDS011;21106;52.240;20.902;2023-12-04T17:19:20;41.60;;;20.40;;
34892;SDS011;21106;52.240;20.902;2023-12-04T17:24:26;40.60;;;21.00;;
34892;SDS011;21106;52.240;20.902;2023-12-04T17:29:33;39.40;;;20.10;;
34892;SDS011;21106;52.240;20.902;2023-12-04T17:34:39;43.70;;;20.80;;
34892;SDS011;21106;52.240;20.902;2023-12-04T17:39:46;40.30;;;19.60;;
34892;SDS011;21106;52.240;20.902;2023-12-04T17:44:53;45.20;;;20.90;;
34892;SDS011;21106;52.240;20.902;2023-12-04T17:50:00;45.60;;;20.70;;
34892;SDS011;21106;52.240;20.902;2023-12-04T17:55:09;36.80;;;15.60;;
34892;SDS011;21106;52.240;20.902;2023-12-04T18:00:17;43.00;;;21.90;;
34892;SDS011;21106;52.240;20.902;2023-12-04T18:05:24;49.80;;;21.90;;
34892;SDS011;21106;52.240;20.902;2023-12-04T18:10:31;47.30;;;23.60;;
34892;SDS011;21106;52.240;20.902;2023-12-04T18:15:37;51.40;;;23.90;;
34892;SDS011;21106;52.240;20.902;2023-12-04T18:20:44;47.80;;;23.20;;
34892;SDS011;21106;52.240;20.902;2023-12-04T18:25:57;51.10;;;23.80;;
34892;SDS011;21106;52.240;20.902;2023-12-04T18:31:04;49.80;;;22.70;;
34892;SDS011;21106;52.240;20.902;2023-12-04T18:36:11;49.10;;;23.80;;
34892;SDS011;21106;52.240;20.902;2023-12-04T18:41:20;48.50;;;22.80;;
34892;SDS011;21106;52.240;20.902;2023-12-04T18:46:28;56.60;;;25.20;;
34892;SDS011;21106;52.240;20.902;2023-12-04T18:51:45;53.50;;;24.30;;
34892;SDS011;21106;52.240;20.902;2023-12-04T18:56:51;55.90;;;25.70;;
34892;SDS011;21106;52.240;20.902;2023-12-04T19:01:58;55.40;;;26.30;;
34892;SDS011;21106;52.240;20.902;2023-12-04T19:07:04;56.50;;;24.80;;
34892;SDS011;21106;52.240;20.902;2023-12-04T19:12:11;56.40;;;25.40;;
34892;SDS011;21106;52.240;20.902;2023-12-04T19:17:19;56.40;;;24.90;;
34892;SDS011;21106;52.240;20.902;2023-12-04T19:22:26;56.80;;;25.40;;
34892;SDS011;21106;52.240;20.902;2023-12-04T19:27:33;54.90;;;26.20;;
34892;SDS011;21106;52.240;20.902;2023-12-04T19:32:40;53.90;;;25.70;;
34892;SDS011;21106;52.240;20.902;2023-12-04T19:37:49;54.40;;;26.10;;
34892;SDS011;21106;52.240;20.902;2023-12-04T19:42:56;57.70;;;26.50;;
34892;SDS011;21106;52.240;20.902;2023-12-04T19:48:02;62.20;;;26.00;;
34892;SDS011;21106;52.240;20.902;2023-12-04T19:53:09;61.20;;;25.90;;
34892;SDS011;21106;52.240;20.902;2023-12-04T19:58:16;58.00;;;25.50;;
34892;SDS011;21106;52.240;20.902;2023-12-04T20:03:23;55.80;;;25.90;;
34892;SDS011;21106;52.240;20.902;2023-12-04T20:08:30;63.30;;;27.10;;
34892;SDS011;21106;52.240;20.902;2023-12-04T20:13:36;56.80;;;26.20;;
34892;SDS011;21106;52.240;20.902;2023-12-04T20:18:44;64.10;;;28.40;;
34892;SDS011;21106;52.240;20.902;2023-12-04T20:23:51;58.70;;;27.20;;
34892;SDS011;21106;52.240;20.902;2023-12-04T20:28:57;61.70;;;27.40;;
34892;SDS011;21106;52.240;20.902;2023-12-04T20:34:04;66.70;;;29.30;;
34892;SDS011;21106;52.240;20.902;2023-12-04T20:39:10;61.60;;;28.90;;
34892;SDS011;21106;52.240;20.902;2023-12-04T20:44:17;59.40;;;27.80;;
34892;SDS011;21106;52.240;20.902;2023-12-04T20:49:23;65.00;;;29.20;;
34892;SDS011;21106;52.240;20.902;2023-12-04T20:54:30;64.00;;;28.80;;
34892;SDS011;21106;52.240;20.902;2023-12-04T20:59:36;66.20;;;30.00;;
34892;SDS011;21106;52.240;20.902;2023-12-04T21:04:42;63.70;;;28.40;;
34892;SDS011;21106;52.240;20.902;2023-12-04T21:09:49;59.40;;;28.00;;
34892;SDS011;21106;52.240;20.902;2023-12-04T21:14:55;63.20;;;29.10;;
34892;SDS011;21106;52.240;20.902;2023-12-04T21:20:05;72.50;;;30.00;;
34892;SDS011;21106;52.240;20.902;2023-12-04T21:25:13;66.50;;;29.50;;
34892;SDS011;21106;52.240;20.902;2023-12-04T21:30:19;66.70;;;29.30;;
34892;SDS011;21106;52.240;20.902;2023-12-04T21:35:25;64.30;;;29.70;;
34892;SDS011;21106;52.240;20.902;2023-12-04T21:40:32;62.60;;;29.80;;
34892;SDS011;21106;52.240;20.902;2023-12-04T21:45:39;69.60;;;29.20;;
34892;SDS011;21106;52.240;20.902;2023-12-04T21:50:45;65.00;;;30.90;;
34892;SDS011;21106;52.240;20.902;2023-12-04T21:55:52;70.10;;;30.70;;
34892;SDS011;21106;52.240;20.902;2023-12-04T22:00:58;65.50;;;30.60;;
34892;SDS011;21106;52.240;20.902;2023-12-04T22:06:05;66.20;;;30.20;;
34892;SDS011;21106;52.240;20.902;2023-12-04T22:11:12;70.30;;;29.80;;
34892;SDS011;21106;52.240;20.902;2023-12-04T22:16:18;70.70;;;33.00;;
34892;SDS011;21106;52.240;20.902;2023-12-04T22:21:24;63.60;;;28.00;;
34892;SDS011;21106;52.240;20.902;2023-12-04T22:26:32;64.30;;;29.30;;
34892;SDS011;21106;52.240;20.902;2023-12-04T22:31:38;69.60;;;30.80;;
34892;SDS011;21106;52.240;20.902;2023-12-04T22:36:45;69.90;;;30.20;;
34892;SDS011;21106;52.240;20.902;2023-12-04T22:41:51;63.20;;;28.70;;
34892;SDS011;21106;52.240;20.902;2023-12-04T22:46:58;63.40;;;28.50;;
34892;SDS011;21106;52.240;20.902;2023-12-04T22:52:04;60.00;;;27.60;;
34892;SDS011;21106;52.240;20.902;2023-12-04T22:57:11;59.40;;;27.30;;
34892;SDS011;21106;52.240;20.902;2023-12-04T23:02:17;69.90;;;28.80;;
34892;SDS011;21106;52.240;20.902;2023-12-04T23:07:25;65.90;;;28.40;;
34892;SDS011;21106;52.240;20.902;2023-12-04T23:12:32;65.50;;;28.50;;
34892;SDS011;21106;52.240;20.902;2023-12-04T23:17:38;66.00;;;28.50;;
34892;SDS011;21106;52.240;20.902;2023-12-04T23:22:45;74.60;;;31.30;;
34892;SDS011;21106;52.240;20.902;2023-12-04T23:27:51;69.60;;;32.00;;
34892;SDS011;21106;52.240;20.902;2023-12-04T23:32:58;70.10;;;29.90;;
34892;SDS011;21106;52.240;20.902;2023-12-04T23:38:04;73.40;;;30.70;;
34892;SDS011;21106;52.240;20.902;2023-12-04T23:43:10;69.10;;;30.50;;
34892;SDS011;21106;52.240;20.902;2023-12-04T23:48:17;69.70;;;29.70;;
34892;SDS011;21106;52.240;20.902;2023-12-04T23:53:23;70.40;;;30.30;;
34892;SDS011;21106;52.240;20.902;2023-12-04T23:58:30;72.60;;;30.60;;
